Time;durP1;ratioP1;P1;durP2;ratioP2;P2;SDS_P1;SDS_P2;PMS_P1;PMS_P2;Temp;Humidity;BMP_temperature;BMP_pressure;BME280_temperature;BME280_humidity;BME280_pressure;Samples;Min_cycle;Max_cycle;Signal;HPM_P1;HPM_P2
2023/10/09 00:02:12;;;;;;;0.00;0.00;;;13.70;99.90;;;;;;6217285;23;20008;-88
2023/10/09 00:04:42;;;;;;;0.00;0.00;;;13.70;99.90;;;;;;6216837;23;20065;-89
2023/10/09 00:07:09;;;;;;;0.00;0.00;;;;;;;;;;6218076;23;20073;-88
2023/10/09 00:09:47;;;;;;;0.00;0.00;;;13.70;99.90;;;;;;6216545;23;20050;-88
2023/10/09 00:12:22;;;;;;;0.00;0.00;;;13.50;99.90;;;;;;6217499;23;20075;-88
2023/10/09 00:14:50;;;;;;;0.00;0.00;;;13.70;99.90;;;;;;6217340;23;20038;-88
2023/10/09 00:19:43;;;;;;;0.00;0.00;;;;;;;;;;6244536;23;20011;-87
2023/10/09 00:22:18;;;;;;;0.00;0.00;;;;;;;;;;6217664;23;20004;-88
2023/10/09 00:24:45;;;;;;;0.00;0.00;;;;;;;;;;6214687;23;20542;-88
2023/10/09 00:27:12;;;;;;;0.00;0.00;;;;;;;;;;6217433;23;19997;-88
2023/10/09 00:29:44;;;;;;;0.00;0.00;;;;;;;;;;6217376;23;20459;-88
2023/10/09 00:32:16;;;;;;;0.00;0.00;;;;;;;;;;6216967;23;20146;-87
2023/10/09 00:34:42;;;;;;;0.00;0.00;;;13.70;99.90;;;;;;6217528;23;20009;-88
2023/10/09 00:37:25;;;;;;;0.00;0.00;;;13.70;99.90;;;;;;6215556;23;20008;-87
2023/10/09 00:40:12;;;;;;;0.00;0.00;;;;;;;;;;6219458;23;20018;-87
2023/10/09 00:42:38;;;;;;;0.00;0.00;;;13.80;99.90;;;;;;6246812;23;20004;-86
2023/10/09 00:45:04;;;;;;;0.00;0.00;;;13.70;99.90;;;;;;6220218;23;20363;-86
2023/10/09 00:47:34;;;;;;;0.00;0.00;;;13.70;99.90;;;;;;6220049;23;20037;-87
2023/10/09 00:50:21;;;;;;;0.00;0.00;;;13.60;99.90;;;;;;6220227;23;20347;-87
2023/10/09 00:53:01;;;;;;;0.00;0.00;;;13.60;99.90;;;;;;6219235;22;20466;-89
2023/10/09 00:55:37;;;;;;;0.00;0.00;;;13.50;99.90;;;;;;6218345;23;20339;-89
2023/10/09 00:58:09;;;;;;;0.00;0.00;;;13.70;99.90;;;;;;6245130;23;19992;-88
2023/10/09 01:05:52;;;;;;;0.00;0.00;;;13.50;99.90;;;;;;6255832;23;20004;-89
2023/10/09 01:11:09;;;;;;;0.00;0.00;;;;;;;;;;6255476;23;20011;-89
2023/10/09 01:13:52;;;;;;;0.00;0.00;;;;;;;;;;6218342;23;20418;-89
2023/10/09 01:16:21;;;;;;;0.00;0.00;;;13.60;99.90;;;;;;6218436;23;20031;-88
2023/10/09 01:18:57;;;;;;;0.00;0.00;;;13.60;99.90;;;;;;6218035;23;20126;-88
2023/10/09 01:24:04;;;;;;;0.00;0.00;;;;;;;;;;6273646;22;20027;-85
2023/10/09 01:26:40;;;;;;;0.00;0.00;;;13.60;99.90;;;;;;6244974;22;20036;-87
2023/10/09 01:29:14;;;;;;;0.00;0.00;;;13.70;99.90;;;;;;6247176;22;20003;-85
2023/10/09 01:31:56;;;;;;;0.00;0.00;;;13.70;99.90;;;;;;6230876;23;19996;-83
2023/10/09 01:34:24;;;;;;;0.00;0.00;;;13.90;99.90;;;;;;6214866;23;20008;-83
2023/10/09 01:36:53;;;;;;;0.00;0.00;;;13.80;99.90;;;;;;6215824;23;20008;-85
2023/10/09 01:39:39;;;;;;;0.00;0.00;;;;;;;;;;6217170;23;20397;-85
2023/10/09 01:42:05;;;;;;;0.00;0.00;;;;;;;;;;6216538;23;20008;-85
2023/10/09 01:44:35;;;;;;;0.00;0.00;;;13.70;99.90;;;;;;6216275;23;20012;-85
2023/10/09 01:47:08;;;;;;;0.00;0.00;;;13.60;99.90;;;;;;6215538;23;20000;-85
2023/10/09 01:49:48;;;;;;;0.00;0.00;;;13.70;99.90;;;;;;6216051;23;20079;-84
2023/10/09 01:52:18;;;;;;;0.00;0.00;;;13.70;99.90;;;;;;6216884;23;20004;-85
2023/10/09 01:54:48;;;;;;;0.00;0.00;;;13.90;99.90;;;;;;6216486;23;20015;-84
2023/10/09 01:57:15;;;;;;;0.00;0.00;;;13.70;99.90;;;;;;6216274;23;20008;-85
2023/10/09 01:59:55;;;;;;;0.00;0.00;;;13.90;99.90;;;;;;6215775;23;20012;-85
2023/10/09 02:02:31;;;;;;;0.00;0.00;;;13.60;99.90;;;;;;6216185;23;20027;-87
2023/10/09 02:07:40;;;;;;;0.00;0.00;;;13.60;99.90;;;;;;6254255;23;20000;-87
2023/10/09 02:10:31;;;;;;;0.00;0.00;;;13.80;99.90;;;;;;6215638;23;20000;-85
2023/10/09 02:13:09;;;;;;;0.00;0.00;;;13.50;99.90;;;;;;6215749;23;20283;-85
2023/10/09 02:20:55;;;;;;;0.00;0.00;;;13.70;99.90;;;;;;6242833;22;20004;-85
2023/10/09 02:23:25;;;;;;;0.00;0.00;;;13.80;99.90;;;;;;6216339;23;20466;-85
2023/10/09 02:25:53;;;;;;;0.00;0.00;;;;;;;;;;6243252;23;19996;-86
2023/10/09 02:28:19;;;;;;;0.00;0.00;;;;;;;;;;6215342;23;20439;-85
2023/10/09 02:30:49;;;;;;;0.00;0.00;;;;;;;;;;6215698;22;20000;-85
2023/10/09 02:33:27;;;;;;;0.00;0.00;;;13.60;99.90;;;;;;6216017;23;20380;-84
2023/10/09 02:35:54;;;;;;;0.00;0.00;;;13.90;99.90;;;;;;6215538;23;20035;-86
2023/10/09 02:38:23;;;;;;;0.00;0.00;;;13.90;99.90;;;;;;6216499;23;20004;-81
2023/10/09 02:41:20;;;;;;;0.00;0.00;;;13.80;99.90;;;;;;6216547;22;20070;-85
2023/10/09 02:43:47;;;;;;;0.00;0.00;;;13.70;99.90;;;;;;6214722;23;20039;-85
2023/10/09 02:46:20;;;;;;;0.00;0.00;;;14.10;99.90;;;;;;6214801;23;20380;-86
2023/10/09 02:48:52;;;;;;;0.00;0.00;;;14.10;99.90;;;;;;6243038;23;20072;-85
2023/10/09 02:53:56;;;;;;;0.00;0.00;;;14.20;99.90;;;;;;6253185;23;20442;-84
2023/10/09 02:56:36;;;;;;;0.00;0.00;;;;;;;;;;6216674;23;20012;-84
2023/10/09 02:59:05;;;;;;;0.00;0.00;;;;;;;;;;6216133;23;20427;-84
2023/10/09 03:01:31;;;;;;;0.00;0.00;;;;;;;;;;6216171;23;20042;-84
2023/10/09 03:03:59;;;;;;;0.00;0.00;;;14.30;99.90;;;;;;6216045;23;20004;-84
2023/10/09 03:06:30;;;;;;;0.00;0.00;;;14.20;99.90;;;;;;6214325;23;20062;-85
2023/10/09 03:08:59;;;;;;;0.00;0.00;;;14.10;99.90;;;;;;6216157;23;20000;-83
2023/10/09 03:11:26;;;;;;;0.00;0.00;;;;;;;;;;6215962;23;20004;-84
2023/10/09 03:13:53;;;;;;;0.00;0.00;;;14.20;99.90;;;;;;6215840;23;20030;-84
2023/10/09 03:16:19;;;;;;;0.00;0.00;;;14.30;99.90;;;;;;6214935;23;20004;-84
2023/10/09 03:18:52;;;;;;;0.00;0.00;;;14.30;99.90;;;;;;6216539;23;20008;-83
2023/10/09 03:21:18;;;;;;;0.00;0.00;;;14.50;99.90;;;;;;6215481;23;20060;-84
2023/10/09 03:23:49;;;;;;;0.00;0.00;;;14.30;99.90;;;;;;6216121;23;20008;-84
2023/10/09 03:26:17;;;;;;;0.00;0.00;;;14.40;99.90;;;;;;6216391;23;20001;-84
2023/10/09 03:28:46;;;;;;;0.00;0.00;;;14.50;99.90;;;;;;6216581;23;20381;-85
2023/10/09 03:31:12;;;;;;;0.00;0.00;;;14.30;99.90;;;;;;6215011;23;20000;-84
2023/10/09 03:33:38;;;;;;;0.00;0.00;;;;;;;;;;6216916;23;20008;-84
2023/10/09 03:36:09;;;;;;;0.00;0.00;;;14.50;99.90;;;;;;6216905;23;20054;-84
2023/10/09 03:38:36;;;;;;;0.00;0.00;;;14.50;99.90;;;;;;6217888;23;20511;-85
2023/10/09 03:41:06;;;;;;;0.00;0.00;;;14.50;99.90;;;;;;6216961;23;20423;-84
2023/10/09 03:43:34;;;;;;;;;;;14.50;99.90;;;;;;6217407;23;20427;-84
2023/10/09 03:46:03;;;;;;;0.00;0.00;;;14.40;99.90;;;;;;6217735;23;20311;-84
2023/10/09 03:48:32;;;;;;;0.00;0.00;;;;;;;;;;6217559;23;20107;-84
2023/10/09 03:51:20;;;;;;;0.00;0.00;;;14.60;99.90;;;;;;6217105;23;20004;-84
2023/10/09 03:53:47;;;;;;;0.00;0.00;;;;;;;;;;6218484;23;20031;-85
2023/10/09 03:56:15;;;;;;;0.00;0.00;;;14.80;99.90;;;;;;6217460;23;20008;-84
2023/10/09 03:58:45;;;;;;;0.00;0.00;;;14.60;99.90;;;;;;6216956;23;20043;-84
2023/10/09 04:01:28;;;;;;;0.00;0.00;;;14.50;99.90;;;;;;6215579;23;20008;-84
2023/10/09 04:04:03;;;;;;;0.00;0.00;;;14.60;99.90;;;;;;6216557;23;20014;-85
2023/10/09 04:06:33;;;;;;;0.00;0.00;;;14.70;99.90;;;;;;6217514;23;20012;-84
2023/10/09 04:11:56;;;;;;;0.00;0.00;;;14.60;99.90;;;;;;6247758;22;19908;-84
2023/10/09 04:14:35;;;;;;;0.00;0.00;;;14.60;99.90;;;;;;6216952;23;20008;-85
2023/10/09 04:20:14;;;;;;;0.00;0.00;;;;;;;;;;6241186;23;20015;-84
2023/10/09 04:22:39;;;;;;;0.00;0.00;;;14.40;99.90;;;;;;6243508;22;20042;-85
2023/10/09 04:25:14;;;;;;;0.00;0.00;;;14.40;99.90;;;;;;6216455;23;20316;-88
2023/10/09 04:27:40;;;;;;;0.00;0.00;;;;;;;;;;6217451;23;20439;-85
2023/10/09 04:30:07;;;;;;;0.00;0.00;;;14.70;99.90;;;;;;6214127;23;20035;-84
2023/10/09 04:32:34;;;;;;;0.00;0.00;;;14.70;99.90;;;;;;6215923;23;20004;-86
2023/10/09 04:35:23;;;;;;;0.00;0.00;;;14.50;99.90;;;;;;6216815;23;20008;-86
2023/10/09 04:38:06;;;;;;;0.00;0.00;;;14.80;99.90;;;;;;6216908;23;20008;-85
2023/10/09 04:40:51;;;;;;;0.00;0.00;;;;;;;;;;6242485;22;20053;-84
2023/10/09 04:43:20;;;;;;;0.00;0.00;;;;;;;;;;6217331;23;20027;-86
2023/10/09 04:46:07;;;;;;;0.00;0.00;;;14.80;99.90;;;;;;6217299;23;20008;-87
2023/10/09 04:48:33;;;;;;;0.00;0.00;;;;;;;;;;6217426;23;20008;-84
2023/10/09 04:53:47;;;;;;;0.00;0.00;;;14.70;99.90;;;;;;6244264;23;20342;-85
2023/10/09 04:56:15;;;;;;;0.00;0.00;;;;;;;;;;6217276;23;20447;-85
2023/10/09 04:58:41;;;;;;;0.00;0.00;;;14.70;99.90;;;;;;6217034;23;20004;-85
2023/10/09 05:01:15;;;;;;;0.00;0.00;;;;;;;;;;6215880;23;20061;-85
2023/10/09 05:08:54;;;;;;;0.00;0.00;;;;;;;;;;6243610;23;20031;-85
2023/10/09 05:11:52;;;;;;;0.00;0.00;;;14.60;99.90;;;;;;6243570;22;20442;-85
2023/10/09 05:14:27;;;;;;;0.00;0.00;;;14.80;99.90;;;;;;6216203;23;20004;-85
2023/10/09 05:17:01;;;;;;;0.00;0.00;;;14.50;99.90;;;;;;6216195;23;20014;-86
2023/10/09 05:19:41;;;;;;;0.00;0.00;;;14.70;99.90;;;;;;6214556;23;20441;-86
2023/10/09 05:22:16;;;;;;;0.00;0.00;;;;;;;;;;6232488;23;20015;-82
2023/10/09 05:24:47;;;;;;;0.00;0.00;;;14.50;99.90;;;;;;6233252;23;20004;-85
2023/10/09 05:27:18;;;;;;;0.00;0.00;;;14.60;99.90;;;;;;6215137;23;20004;-84
2023/10/09 05:32:48;;;;;;;0.00;0.00;;;14.60;99.90;;;;;;6208119;23;20058;-86
2023/10/09 05:35:17;;;;;;;0.00;0.00;;;14.60;99.90;;;;;;6215071;23;20058;-87
2023/10/09 05:37:43;;;;;;;0.00;0.00;;;;;;;;;;6216953;23;20008;-85
2023/10/09 05:47:53;;;;;;;0.00;0.00;;;14.40;99.90;;;;;;6253766;23;20000;-85
2023/10/09 06:06:32;;;;;;;0.00;0.00;;;14.60;99.90;;;;;;6242800;23;20386;-86
2023/10/09 06:11:48;;;;;;;0.00;0.00;;;;;;;;;;6248765;22;20004;-86
2023/10/09 06:14:26;;;;;;;0.00;0.00;;;14.70;99.90;;;;;;6216623;23;20074;-86
2023/10/09 06:19:27;;;;;;;0.00;0.00;;;14.80;99.90;;;;;;6249915;23;20289;-86
2023/10/09 06:24:54;;;;;;;0.00;0.00;;;14.90;99.90;;;;;;6242863;23;20065;-86
2023/10/09 06:27:26;;;;;;;0.00;0.00;;;15.00;99.90;;;;;;6241475;23;20000;-87
2023/10/09 06:30:13;;;;;;;0.00;0.00;;;15.00;99.90;;;;;;6215733;23;20008;-86
2023/10/09 06:32:37;;;;;;;0.00;0.00;;;;;;;;;;6241266;22;20007;-86
2023/10/09 06:35:16;;;;;;;0.00;0.00;;;14.90;99.90;;;;;;6213720;23;20101;-85
2023/10/09 06:45:57;;;;;;;0.00;0.00;;;14.80;99.90;;;;;;6240255;23;20001;-86
2023/10/09 06:51:34;;;;;;;0.00;0.00;;;15.00;99.90;;;;;;6249128;22;20014;-86
2023/10/09 06:54:09;;;;;;;0.00;0.00;;;15.10;99.90;;;;;;6215523;23;20047;-87
2023/10/09 06:59:21;;;;;;;0.00;0.00;;;15.10;99.90;;;;;;6242925;23;20005;-86
2023/10/09 07:02:25;;;;;;;0.00;0.00;;;15.10;99.90;;;;;;6214990;23;20020;-87
2023/10/09 07:07:01;;;;;;;0.00;0.00;;;;;;;;;;6241957;23;20331;-85
2023/10/09 07:09:43;;;;;;;0.00;0.00;;;;;;;;;;6241334;23;20001;-86
2023/10/09 07:12:13;;;;;;;0.00;0.00;;;15.40;99.90;;;;;;6215347;23;20004;-82
2023/10/09 07:24:58;;;;;;;0.00;0.00;;;15.60;99.90;;;;;;6241359;23;20039;-88
2023/10/09 07:27:43;;;;;;;0.00;0.00;;;15.50;99.90;;;;;;6214563;23;20514;-87
2023/10/09 07:32:55;;;;;;;0.00;0.00;;;15.60;99.90;;;;;;6252618;23;20005;-86
2023/10/09 09:21:59;;;;;;;0.00;0.00;;;16.90;99.90;;;;;;6275200;22;19999;-85
2023/10/09 09:27:18;;;;;;;0.00;0.00;;;17.00;99.90;;;;;;6244144;23;20034;-86
2023/10/09 09:29:54;;;;;;;0.00;0.00;;;16.60;99.90;;;;;;6216879;23;20028;-85
2023/10/09 09:32:37;;;;;;;0.00;0.00;;;16.40;99.90;;;;;;6217890;23;20000;-87
2023/10/09 09:35:05;;;;;;;0.00;0.00;;;16.30;99.90;;;;;;6216986;23;20431;-86
2023/10/09 09:40:44;;;;;;;0.00;0.00;;;16.60;99.90;;;;;;6250190;23;20012;-86
2023/10/09 09:43:06;;;;;;;0.00;0.00;;;16.50;99.90;;;;;;6240134;23;20054;-85
2023/10/09 09:45:36;;;;;;;0.00;0.00;;;16.80;99.90;;;;;;6216519;23;20087;-86
2023/10/09 09:48:10;;;;;;;;;;;16.80;99.90;;;;;;6218283;23;20011;-87
2023/10/09 09:50:44;;;;;;;0.00;0.00;;;16.90;99.90;;;;;;6216768;23;19926;-86
2023/10/09 09:53:17;;;;;;;0.00;0.00;;;17.00;99.90;;;;;;6217124;23;20004;-88
2023/10/09 09:55:55;;;;;;;0.00;0.00;;;17.10;99.90;;;;;;6243829;22;20000;-86
2023/10/09 09:58:23;;;;;;;0.00;0.00;;;;;;;;;;6215895;23;20008;-87
2023/10/09 10:00:57;;;;;;;0.00;0.00;;;17.30;99.90;;;;;;6244180;23;20000;-85
2023/10/09 10:03:29;;;;;;;0.00;0.00;;;17.30;99.90;;;;;;6216211;23;20012;-86
2023/10/09 10:05:56;;;;;;;0.00;0.00;;;17.50;99.90;;;;;;6217350;23;20054;-86
2023/10/09 10:08:32;;;;;;;0.00;0.00;;;17.60;99.90;;;;;;6216547;23;20007;-86
2023/10/09 10:11:04;;;;;;;0.00;0.00;;;17.50;99.90;;;;;;6216166;23;20048;-86
2023/10/09 10:13:59;;;;;;;0.00;0.00;;;17.70;99.90;;;;;;6216905;23;20008;-87
2023/10/09 10:16:34;;;;;;;0.00;0.00;;;17.90;99.90;;;;;;6209811;23;20012;-88
2023/10/09 10:19:06;;;;;;;0.00;0.00;;;17.90;99.90;;;;;;6215942;23;20020;-87
2023/10/09 10:21:40;;;;;;;0.00;0.00;;;17.90;99.90;;;;;;6214105;23;20039;-87
2023/10/09 10:24:30;;;;;;;0.00;0.00;;;17.80;99.90;;;;;;6213314;22;20008;-86
2023/10/09 10:27:26;;;;;;;;;;;17.80;99.90;;;;;;6194200;23;20016;-87
2023/10/09 10:30:13;;;;;;;0.00;0.00;;;17.60;99.90;;;;;;6202505;23;19929;-88
2023/10/09 10:32:58;;;;;;;0.00;0.00;;;17.60;99.90;;;;;;6214450;23;20027;-87
2023/10/09 10:35:44;;;;;;;0.00;0.00;;;17.50;99.90;;;;;;6214331;23;20098;-87
2023/10/09 10:38:32;;;;;;;0.00;0.00;;;17.60;99.90;;;;;;6214364;23;20036;-87
2023/10/09 10:41:16;;;;;;;0.00;0.00;;;17.70;99.90;;;;;;6214314;23;20447;-87
2023/10/09 10:43:54;;;;;;;0.00;0.00;;;;;;;;;;6213964;23;20470;-88
2023/10/09 10:51:39;;;;;;;0.00;0.00;;;;;;;;;;6252783;23;20099;-86
2023/10/09 10:56:51;;;;;;;0.00;0.00;;;17.60;99.90;;;;;;6242714;23;20018;-86
2023/10/09 10:59:25;;;;;;;0.00;0.00;;;17.40;99.90;;;;;;6243469;23;20028;-86
2023/10/09 11:05:14;;;;;;;0.00;0.00;;;17.40;99.90;;;;;;6250379;22;20431;-86
2023/10/09 11:07:24;;;;;;;0.00;0.00;;;;;;;;;;6240796;23;20008;-86
2023/10/09 11:12:38;;;;;;;0.00;0.00;;;16.80;99.90;;;;;;6243289;23;20008;-87
2023/10/09 11:17:58;;;;;;;0.00;0.00;;;16.90;99.90;;;;;;6249375;23;20008;-86
2023/10/09 11:20:32;;;;;;;0.00;0.00;;;;;;;;;;6191161;23;20024;-87
2023/10/09 11:25:52;;;;;;;0.00;0.00;;;16.90;99.90;;;;;;6245328;22;20004;-86
2023/10/09 11:31:17;;;;;;;0.00;0.00;;;16.80;99.90;;;;;;6242566;23;20006;-88
2023/10/09 11:34:02;;;;;;;0.00;0.00;;;16.90;99.90;;;;;;6212832;23;20008;-88
2023/10/09 11:36:34;;;;;;;0.00;0.00;;;17.10;99.90;;;;;;6216132;23;20008;-87
2023/10/09 11:39:14;;;;;;;0.00;0.00;;;17.00;99.90;;;;;;6215196;23;20008;-87
2023/10/09 11:41:44;;;;;;;0.00;0.00;;;17.00;99.90;;;;;;6215281;23;20076;-87
2023/10/09 11:44:19;;;;;;;0.00;0.00;;;17.30;99.90;;;;;;6215402;22;20013;-89
2023/10/09 11:46:58;;;;;;;0.00;0.00;;;17.30;99.90;;;;;;6215873;23;20004;-87
2023/10/09 11:49:34;;;;;;;0.00;0.00;;;17.30;99.90;;;;;;6215631;23;20008;-86
2023/10/09 11:54:35;;;;;;;0.00;0.00;;;17.20;99.90;;;;;;6244147;22;20476;-85
2023/10/09 11:57:01;;;;;;;0.00;0.00;;;17.20;99.90;;;;;;6217088;23;20019;-86
2023/10/09 11:59:38;;;;;;;0.00;0.00;;;17.30;99.90;;;;;;6217046;23;20008;-87
2023/10/09 12:02:04;;;;;;;0.00;0.00;;;17.60;99.90;;;;;;6218285;23;20439;-87
2023/10/09 12:04:30;;;;;;;0.00;0.00;;;17.60;99.90;;;;;;6216875;23;20000;-87
2023/10/09 12:07:10;;;;;;;0.00;0.00;;;17.90;99.90;;;;;;6218777;23;20005;-87
2023/10/09 12:09:37;;;;;;;0.00;0.00;;;17.80;99.90;;;;;;6218770;23;20011;-88
2023/10/09 12:12:03;;;;;;;0.00;0.00;;;;;;;;;;6218363;23;20004;-86
2023/10/09 12:14:33;;;;;;;0.00;0.00;;;18.00;99.90;;;;;;6218562;23;20004;-87
2023/10/09 12:17:05;;;;;;;;;;;17.90;99.90;;;;;;6217623;23;20004;-86
2023/10/09 12:19:38;;;;;;;0.00;0.00;;;18.20;99.90;;;;;;6217261;23;19915;-86
2023/10/09 12:22:06;;;;;;;0.00;0.00;;;18.30;99.90;;;;;;6216215;23;20008;-85
2023/10/09 12:24:33;;;;;;;0.00;0.00;;;18.30;99.90;;;;;;6217590;23;20382;-87
2023/10/09 12:26:59;;;;;;;0.00;0.00;;;18.30;99.90;;;;;;6193229;23;20004;-87
2023/10/09 12:29:29;;;;;;;0.00;0.00;;;18.10;99.90;;;;;;6218032;23;20423;-87
2023/10/09 12:31:58;;;;;;;0.00;0.00;;;18.00;99.90;;;;;;6216139;23;20008;-87
2023/10/09 12:34:26;;;;;;;0.00;0.00;;;;;;;;;;6216327;23;20108;-85
2023/10/09 12:37:01;;;;;;;0.00;0.00;;;17.70;99.90;;;;;;6217191;23;20015;-87
2023/10/09 12:39:33;;;;;;;0.00;0.00;;;17.80;99.90;;;;;;6219105;23;20008;-87
2023/10/09 12:42:06;;;;;;;0.00;0.00;;;;;;;;;;6217950;23;20028;-88
2023/10/09 12:44:38;;;;;;;0.00;0.00;;;17.90;99.90;;;;;;6245516;22;20001;-86
2023/10/09 12:47:05;;;;;;;0.00;0.00;;;17.80;99.90;;;;;;6218550;23;20001;-86
2023/10/09 12:49:31;;;;;;;0.00;0.00;;;;;;;;;;6217935;23;20009;-87
2023/10/09 12:51:57;;;;;;;0.00;0.00;;;;;;;;;;6216546;23;20327;-86
2023/10/09 12:54:27;;;;;;;0.00;0.00;;;17.70;99.90;;;;;;6213310;23;20011;-87
2023/10/09 12:56:53;;;;;;;0.00;0.00;;;;;;;;;;6215845;23;20384;-87
2023/10/09 12:59:20;;;;;;;0.00;0.00;;;;;;;;;;6214023;23;20091;-87
2023/10/09 13:01:51;;;;;;;0.00;0.00;;;17.80;99.90;;;;;;6215823;23;20070;-87
2023/10/09 13:04:17;;;;;;;0.00;0.00;;;17.70;99.90;;;;;;6216120;23;20508;-87
2023/10/09 13:06:44;;;;;;;0.00;0.00;;;17.80;99.90;;;;;;6215674;23;20375;-86
2023/10/09 13:09:15;;;;;;;0.00;0.00;;;17.80;99.90;;;;;;6215617;23;20000;-87
2023/10/09 13:11:42;;;;;;;0.00;0.00;;;17.80;99.90;;;;;;6217793;23;20506;-87
2023/10/09 13:14:16;;;;;;;0.00;0.00;;;17.90;99.90;;;;;;6216269;22;20004;-86
2023/10/09 13:16:42;;;;;;;0.00;0.00;;;;;;;;;;6216314;23;20032;-87
2023/10/09 13:19:11;;;;;;;0.00;0.00;;;;;;;;;;6216761;23;20371;-86
2023/10/09 13:21:39;;;;;;;0.00;0.00;;;;;;;;;;6217654;23;20011;-87
2023/10/09 13:24:08;;;;;;;0.00;0.00;;;18.30;99.90;;;;;;6216787;22;20339;-87
2023/10/09 13:26:38;;;;;;;0.00;0.00;;;18.00;99.90;;;;;;6217324;23;20000;-87
2023/10/09 13:29:04;;;;;;;0.00;0.00;;;17.90;99.90;;;;;;6217744;23;20031;-87
2023/10/09 13:31:33;;;;;;;0.00;0.00;;;17.90;99.90;;;;;;6218909;23;20546;-88
2023/10/09 13:34:00;;;;;;;0.00;0.00;;;17.70;99.90;;;;;;6218026;22;20486;-88
2023/10/09 13:36:27;;;;;;;0.00;0.00;;;;;;;;;;6218081;23;20008;-87
2023/10/09 13:39:20;;;;;;;0.00;0.00;;;17.60;99.90;;;;;;6216963;23;20004;-85
2023/10/09 13:41:47;;;;;;;0.00;0.00;;;17.80;99.90;;;;;;6216806;23;20004;-87
2023/10/09 13:44:13;;;;;;;0.00;0.00;;;;;;;;;;6215155;23;20478;-87
2023/10/09 13:46:42;;;;;;;0.00;0.00;;;;;;;;;;6216183;23;20004;-86
2023/10/09 13:49:12;;;;;;;0.00;0.00;;;18.10;99.90;;;;;;6216763;23;20000;-86
2023/10/09 13:51:43;;;;;;;0.00;0.00;;;18.20;99.90;;;;;;6216719;23;20007;-86
2023/10/09 13:54:09;;;;;;;0.00;0.00;;;18.20;99.90;;;;;;6217558;22;20073;-88
2023/10/09 13:56:39;;;;;;;0.00;0.00;;;;;;;;;;6217113;23;20330;-88
2023/10/09 13:59:10;;;;;;;0.00;0.00;;;;;;;;;;6218079;23;20005;-88
2023/10/09 14:01:38;;;;;;;0.00;0.00;;;18.20;99.90;;;;;;6217453;23;20034;-87
2023/10/09 14:04:07;;;;;;;0.00;0.00;;;;;;;;;;6215833;22;20087;-86
2023/10/09 14:06:32;;;;;;;0.00;0.00;;;18.40;99.90;;;;;;6217272;23;20008;-87
2023/10/09 14:09:09;;;;;;;0.00;0.00;;;18.50;99.90;;;;;;6217508;23;20039;-87
2023/10/09 14:11:39;;;;;;;0.00;0.00;;;18.60;99.90;;;;;;6217033;23;20554;-87
2023/10/09 14:14:09;;;;;;;0.00;0.00;;;18.40;99.90;;;;;;6215561;22;20393;-88
2023/10/09 14:16:36;;;;;;;0.00;0.00;;;18.70;99.90;;;;;;6213621;23;20005;-88
2023/10/09 14:19:07;;;;;;;0.00;0.00;;;18.70;99.90;;;;;;6214516;23;20102;-87
2023/10/09 14:21:37;;;;;;;0.00;0.00;;;18.90;99.90;;;;;;6214729;23;20000;-89
2023/10/09 14:24:03;;;;;;;0.00;0.00;;;18.70;99.90;;;;;;6214169;22;20015;-89
2023/10/09 14:26:29;;;;;;;0.00;0.00;;;18.80;99.90;;;;;;6189406;23;20028;-88
2023/10/09 14:28:56;;;;;;;0.00;0.00;;;18.50;99.90;;;;;;6214939;23;20331;-88
2023/10/09 14:31:26;;;;;;;0.00;0.00;;;18.60;99.90;;;;;;6212457;23;20039;-89
2023/10/09 14:33:56;;;;;;;0.00;0.00;;;18.60;99.90;;;;;;6213594;22;20015;-88
2023/10/09 14:36:23;;;;;;;0.00;0.00;;;18.60;99.90;;;;;;6213865;23;20082;-88
2023/10/09 14:38:52;;;;;;;0.00;0.00;;;18.30;99.90;;;;;;6214630;23;20500;-89
2023/10/09 14:41:21;;;;;;;0.00;0.00;;;18.30;99.90;;;;;;6216251;23;20004;-88
2023/10/09 14:43:48;;;;;;;0.00;0.00;;;;;;;;;;6214937;22;20004;-89
2023/10/09 14:46:14;;;;;;;0.00;0.00;;;18.20;99.90;;;;;;6214775;23;20470;-88
2023/10/09 14:48:41;;;;;;;0.00;0.00;;;18.30;99.90;;;;;;6215051;23;20004;-88
2023/10/09 14:51:07;;;;;;;0.00;0.00;;;18.10;99.90;;;;;;6215234;23;20420;-88
2023/10/09 14:53:35;;;;;;;0.00;0.00;;;18.30;99.90;;;;;;6213669;23;20059;-89
2023/10/09 14:56:08;;;;;;;;;;;18.30;99.90;;;;;;6215137;23;20034;-89
2023/10/09 14:58:38;;;;;;;0.00;0.00;;;18.10;99.90;;;;;;6215455;23;19900;-89
2023/10/09 15:01:12;;;;;;;0.00;0.00;;;17.80;99.90;;;;;;6214615;23;20087;-89
2023/10/09 15:03:38;;;;;;;0.00;0.00;;;;;;;;;;6214954;23;20494;-89
2023/10/09 15:06:08;;;;;;;0.00;0.00;;;;;;;;;;6214575;23;20004;-88
2023/10/09 15:08:35;;;;;;;0.00;0.00;;;18.00;99.90;;;;;;6214923;23;20437;-86
2023/10/09 15:11:01;;;;;;;0.00;0.00;;;;;;;;;;6214038;23;20000;-88
2023/10/09 15:13:30;;;;;;;0.00;0.00;;;;;;;;;;6215951;23;20146;-88
2023/10/09 15:15:56;;;;;;;0.00;0.00;;;;;;;;;;6214485;23;20004;-88
2023/10/09 15:18:22;;;;;;;0.00;0.00;;;;;;;;;;6215765;23;20018;-88
2023/10/09 15:20:49;;;;;;;0.00;0.00;;;17.80;99.90;;;;;;6217098;23;20004;-87
2023/10/09 15:23:15;;;;;;;0.00;0.00;;;;;;;;;;6216477;23;20026;-86
2023/10/09 15:25:45;;;;;;;0.00;0.00;;;;;;;;;;6215994;23;20028;-87
2023/10/09 15:28:10;;;;;;;;;;;17.70;99.90;;;;;;6215766;23;20367;-88
2023/10/09 15:30:41;;;;;;;0.00;0.00;;;;;;;;;;6216797;23;19980;-89
2023/10/09 15:33:07;;;;;;;0.00;0.00;;;17.70;99.90;;;;;;6217820;23;20127;-88
2023/10/09 15:35:33;;;;;;;0.00;0.00;;;17.80;99.90;;;;;;6215808;23;20342;-88
2023/10/09 15:38:03;;;;;;;0.00;0.00;;;17.80;99.90;;;;;;6244283;23;20034;-88
2023/10/09 15:40:33;;;;;;;0.00;0.00;;;;;;;;;;6216537;23;20382;-88
2023/10/09 15:42:59;;;;;;;0.00;0.00;;;17.70;99.90;;;;;;6216615;23;20435;-88
2023/10/09 15:45:28;;;;;;;0.00;0.00;;;;;;;;;;6216522;23;20004;-89
2023/10/09 15:47:54;;;;;;;0.00;0.00;;;;;;;;;;6217458;23;19996;-88
2023/10/09 15:50:24;;;;;;;0.00;0.00;;;17.70;99.90;;;;;;6216346;23;20039;-88
2023/10/09 15:52:51;;;;;;;0.00;0.00;;;;;;;;;;6214947;23;20004;-87
2023/10/09 15:55:20;;;;;;;0.00;0.00;;;17.80;99.90;;;;;;6216833;23;20083;-86
2023/10/09 15:57:48;;;;;;;0.00;0.00;;;;;;;;;;6218936;23;20439;-89
2023/10/09 16:00:17;;;;;;;0.00;0.00;;;;;;;;;;6218803;23;20066;-87
2023/10/09 16:02:43;;;;;;;0.00;0.00;;;;;;;;;;6218904;23;20339;-88
2023/10/09 16:05:13;;;;;;;0.00;0.00;;;;;;;;;;6218442;23;20004;-87
2023/10/09 16:07:39;;;;;;;;;;;17.70;99.90;;;;;;6219334;23;20046;-88
2023/10/09 16:10:08;;;;;;;0.00;0.00;;;17.70;99.90;;;;;;6245432;23;20329;-87
2023/10/09 16:12:34;;;;;;;0.00;0.00;;;;;;;;;;6218404;23;20004;-88
2023/10/09 16:15:00;;;;;;;0.00;0.00;;;;;;;;;;6219893;23;20330;-87
2023/10/09 16:17:25;;;;;;;0.00;0.00;;;17.70;99.90;;;;;;6219012;23;20040;-89
2023/10/09 16:19:51;;;;;;;0.00;0.00;;;;;;;;;;6218349;23;20019;-88
2023/10/09 16:22:17;;;;;;;0.00;0.00;;;17.60;99.90;;;;;;6219393;23;20012;-87
2023/10/09 16:24:44;;;;;;;0.00;0.00;;;17.60;99.90;;;;;;6218185;23;20008;-88
2023/10/09 16:27:14;;;;;;;0.00;0.00;;;17.70;99.90;;;;;;6218847;23;20000;-88
2023/10/09 16:29:44;;;;;;;0.00;0.00;;;17.70;99.90;;;;;;6219713;23;20004;-89
2023/10/09 16:32:11;;;;;;;0.00;0.00;;;17.70;99.90;;;;;;6219440;23;20076;-88
2023/10/09 16:34:38;;;;;;;0.00;0.00;;;17.60;99.90;;;;;;6217109;23;20030;-88
2023/10/09 16:37:06;;;;;;;0.00;0.00;;;;;;;;;;6217026;23;20069;-89
2023/10/09 16:39:38;;;;;;;0.00;0.00;;;17.70;99.90;;;;;;6216668;23;20351;-88
2023/10/09 16:42:04;;;;;;;0.00;0.00;;;;;;;;;;6217577;23;20005;-88
2023/10/09 16:44:31;;;;;;;0.00;0.00;;;17.40;99.90;;;;;;6216263;23;20079;-89
2023/10/09 16:46:58;;;;;;;0.00;0.00;;;17.60;99.90;;;;;;6217193;23;20007;-89
2023/10/09 16:49:25;;;;;;;0.00;0.00;;;17.40;99.90;;;;;;6216609;23;20205;-89
2023/10/09 16:51:51;;;;;;;0.00;0.00;;;17.50;99.90;;;;;;6242909;23;20017;-88
2023/10/09 16:54:17;;;;;;;0.00;0.00;;;;;;;;;;6216084;23;20442;-88
2023/10/09 16:56:43;;;;;;;0.00;0.00;;;;;;;;;;6216791;23;20036;-88
2023/10/09 16:59:13;;;;;;;0.00;0.00;;;17.50;99.90;;;;;;6216414;23;20034;-89
2023/10/09 17:01:44;;;;;;;0.00;0.00;;;17.40;99.90;;;;;;6217084;23;20001;-89
2023/10/09 17:04:11;;;;;;;0.00;0.00;;;17.40;99.90;;;;;;6216142;22;20012;-89
2023/10/09 17:06:38;;;;;;;0.00;0.00;;;17.50;99.90;;;;;;6216405;23;20342;-88
2023/10/09 17:09:11;;;;;;;0.00;0.00;;;17.60;99.90;;;;;;6216448;23;20071;-88
2023/10/09 17:11:37;;;;;;;0.00;0.00;;;;;;;;;;6215594;23;20000;-89
2023/10/09 17:14:05;;;;;;;0.00;0.00;;;;;;;;;;6216300;22;20016;-89
2023/10/09 17:16:31;;;;;;;0.00;0.00;;;;;;;;;;6215612;23;20004;-88
2023/10/09 17:19:00;;;;;;;0.00;0.00;;;17.60;99.90;;;;;;6216481;23;20016;-89
2023/10/09 17:21:26;;;;;;;0.00;0.00;;;;;;;;;;6216375;23;20461;-89
2023/10/09 17:23:58;;;;;;;0.00;0.00;;;17.70;99.90;;;;;;6216618;22;20019;-89
2023/10/09 17:26:24;;;;;;;0.00;0.00;;;;;;;;;;6215823;23;20000;-88
2023/10/09 17:28:52;;;;;;;0.00;0.00;;;17.60;99.90;;;;;;6215234;23;20105;-89
2023/10/09 17:31:23;;;;;;;0.00;0.00;;;;;;;;;;6216999;23;20000;-88
2023/10/09 17:33:49;;;;;;;0.00;0.00;;;;;;;;;;6215556;22;20034;-89
2023/10/09 17:36:16;;;;;;;0.00;0.00;;;17.70;99.90;;;;;;6216515;23;20514;-89
2023/10/09 17:38:43;;;;;;;0.00;0.00;;;17.60;99.90;;;;;;6215115;23;20435;-88